sensor_id;sensor_type;location;lat;lon;timestamp;P1;durP1;ratioP1;P2;durP2;ratioP2
61741;SDS011;47650;49.848;9.620;2022-11-24T00:00:31;17.40;;;9.02;;
61741;SDS011;47650;49.848;9.620;2022-11-24T00:02:57;17.65;;;8.60;;
61741;SDS011;47650;49.848;9.620;2022-11-24T00:05:22;22.15;;;8.88;;
61741;SDS011;47650;49.848;9.620;2022-11-24T00:07:49;17.58;;;7.97;;
61741;SDS011;47650;49.848;9.620;2022-11-24T00:10:15;21.70;;;6.28;;
61741;SDS011;47650;49.848;9.620;2022-11-24T00:12:41;18.45;;;6.38;;
61741;SDS011;47650;49.848;9.620;2022-11-24T00:15:07;14.43;;;6.32;;
61741;SDS011;47650;49.848;9.620;2022-11-24T00:17:33;16.33;;;5.65;;
61741;SDS011;47650;49.848;9.620;2022-11-24T00:19:59;17.05;;;5.50;;
61741;SDS011;47650;49.848;9.620;2022-11-24T00:22:24;15.93;;;5.40;;
61741;SDS011;47650;49.848;9.620;2022-11-24T00:24:49;20.15;;;4.70;;
61741;SDS011;47650;49.848;9.620;2022-11-24T00:27:16;20.63;;;6.85;;
61741;SDS011;47650;49.848;9.620;2022-11-24T00:29:41;22.92;;;6.63;;
61741;SDS011;47650;49.848;9.620;2022-11-24T00:32:12;18.30;;;5.47;;
61741;SDS011;47650;49.848;9.620;2022-11-24T00:34:40;18.70;;;6.97;;
61741;SDS011;47650;49.848;9.620;2022-11-24T00:37:07;18.30;;;5.22;;
61741;SDS011;47650;49.848;9.620;2022-11-24T00:39:32;22.48;;;7.55;;
61741;SDS011;47650;49.848;9.620;2022-11-24T00:41:59;20.17;;;6.30;;
61741;SDS011;47650;49.848;9.620;2022-11-24T00:44:25;18.70;;;6.95;;
61741;SDS011;47650;49.848;9.620;2022-11-24T00:46:52;18.77;;;7.55;;
61741;SDS011;47650;49.848;9.620;2022-11-24T00:49:18;21.25;;;8.23;;
61741;SDS011;47650;49.848;9.620;2022-11-24T00:51:45;19.98;;;6.47;;
61741;SDS011;47650;49.848;9.620;2022-11-24T00:54:10;20.88;;;8.45;;
61741;SDS011;47650;49.848;9.620;2022-11-24T00:56:38;22.17;;;7.65;;
61741;SDS011;47650;49.848;9.620;2022-11-24T00:59:05;23.15;;;8.25;;
61741;SDS011;47650;49.848;9.620;2022-11-24T01:01:32;26.65;;;8.07;;
61741;SDS011;47650;49.848;9.620;2022-11-24T01:03:59;28.38;;;8.25;;
61741;SDS011;47650;49.848;9.620;2022-11-24T01:06:28;26.63;;;8.40;;
61741;SDS011;47650;49.848;9.620;2022-11-24T01:08:55;19.98;;;7.63;;
61741;SDS011;47650;49.848;9.620;2022-11-24T01:11:26;24.75;;;7.13;;
61741;SDS011;47650;49.848;9.620;2022-11-24T01:14:17;25.45;;;6.88;;
61741;SDS011;47650;49.848;9.620;2022-11-24T01:16:47;22.13;;;8.70;;
61741;SDS011;47650;49.848;9.620;2022-11-24T01:19:14;18.98;;;7.60;;
61741;SDS011;47650;49.848;9.620;2022-11-24T01:21:40;22.60;;;8.00;;
61741;SDS011;47650;49.848;9.620;2022-11-24T01:24:05;23.38;;;9.02;;
61741;SDS011;47650;49.848;9.620;2022-11-24T01:26:32;19.40;;;7.82;;
61741;SDS011;47650;49.848;9.620;2022-11-24T01:28:58;21.15;;;7.88;;
61741;SDS011;47650;49.848;9.620;2022-11-24T01:31:23;25.48;;;6.97;;
61741;SDS011;47650;49.848;9.620;2022-11-24T01:33:51;21.83;;;8.07;;
61741;SDS011;47650;49.848;9.620;2022-11-24T01:36:20;20.92;;;6.78;;
61741;SDS011;47650;49.848;9.620;2022-11-24T01:38:46;19.63;;;7.28;;
61741;SDS011;47650;49.848;9.620;2022-11-24T01:41:16;25.92;;;7.60;;
61741;SDS011;47650;49.848;9.620;2022-11-24T01:43:46;26.23;;;7.38;;
61741;SDS011;47650;49.848;9.620;2022-11-24T01:46:18;20.10;;;5.90;;
61741;SDS011;47650;49.848;9.620;2022-11-24T01:49:00;28.25;;;7.85;;
61741;SDS011;47650;49.848;9.620;2022-11-24T01:51:36;15.52;;;5.88;;
61741;SDS011;47650;49.848;9.620;2022-11-24T01:54:08;24.98;;;6.40;;
61741;SDS011;47650;49.848;9.620;2022-11-24T01:56:38;17.85;;;7.72;;
61741;SDS011;47650;49.848;9.620;2022-11-24T01:59:08;29.48;;;11.18;;
61741;SDS011;47650;49.848;9.620;2022-11-24T02:01:37;21.48;;;6.40;;
61741;SDS011;47650;49.848;9.620;2022-11-24T02:04:04;26.88;;;6.95;;
61741;SDS011;47650;49.848;9.620;2022-11-24T02:06:34;18.25;;;6.15;;
61741;SDS011;47650;49.848;9.620;2022-11-24T02:09:15;22.27;;;6.93;;
61741;SDS011;47650;49.848;9.620;2022-11-24T02:11:46;19.83;;;7.53;;
61741;SDS011;47650;49.848;9.620;2022-11-24T02:14:13;21.90;;;7.22;;
61741;SDS011;47650;49.848;9.620;2022-11-24T02:16:43;20.75;;;6.80;;
61741;SDS011;47650;49.848;9.620;2022-11-24T02:20:02;28.83;;;9.07;;
61741;SDS011;47650;49.848;9.620;2022-11-24T02:22:04;23.88;;;8.95;;
61741;SDS011;47650;49.848;9.620;2022-11-24T02:24:46;23.30;;;7.97;;
61741;SDS011;47650;49.848;9.620;2022-11-24T02:27:16;27.90;;;8.88;;
61741;SDS011;47650;49.848;9.620;2022-11-24T02:29:53;26.20;;;8.00;;
61741;SDS011;47650;49.848;9.620;2022-11-24T02:32:20;21.25;;;7.40;;
61741;SDS011;47650;49.848;9.620;2022-11-24T02:34:52;24.02;;;6.80;;
61741;SDS011;47650;49.848;9.620;2022-11-24T02:37:25;22.83;;;7.15;;
61741;SDS011;47650;49.848;9.620;2022-11-24T02:39:50;24.23;;;8.50;;
61741;SDS011;47650;49.848;9.620;2022-11-24T02:42:16;21.25;;;5.70;;
61741;SDS011;47650;49.848;9.620;2022-11-24T02:44:43;20.55;;;5.90;;
61741;SDS011;47650;49.848;9.620;2022-11-24T02:47:13;26.30;;;6.40;;
61741;SDS011;47650;49.848;9.620;2022-11-24T02:49:39;20.90;;;5.47;;
61741;SDS011;47650;49.848;9.620;2022-11-24T02:52:05;22.13;;;6.22;;
61741;SDS011;47650;49.848;9.620;2022-11-24T02:54:32;18.17;;;6.97;;
61741;SDS011;47650;49.848;9.620;2022-11-24T02:56:59;20.15;;;6.90;;
61741;SDS011;47650;49.848;9.620;2022-11-24T02:59:25;24.15;;;7.13;;
61741;SDS011;47650;49.848;9.620;2022-11-24T03:01:50;28.77;;;7.32;;
61741;SDS011;47650;49.848;9.620;2022-11-24T03:04:15;28.73;;;7.40;;
61741;SDS011;47650;49.848;9.620;2022-11-24T03:06:44;22.27;;;6.53;;
61741;SDS011;47650;49.848;9.620;2022-11-24T03:09:10;27.77;;;7.47;;
61741;SDS011;47650;49.848;9.620;2022-11-24T03:11:37;23.83;;;6.47;;
61741;SDS011;47650;49.848;9.620;2022-11-24T03:14:03;32.83;;;7.35;;
61741;SDS011;47650;49.848;9.620;2022-11-24T03:16:29;18.40;;;6.00;;
61741;SDS011;47650;49.848;9.620;2022-11-24T03:19:00;19.98;;;4.57;;
61741;SDS011;47650;49.848;9.620;2022-11-24T03:21:26;25.25;;;6.30;;
61741;SDS011;47650;49.848;9.620;2022-11-24T03:23:57;19.73;;;5.88;;
61741;SDS011;47650;49.848;9.620;2022-11-24T03:26:24;19.23;;;5.60;;
61741;SDS011;47650;49.848;9.620;2022-11-24T03:28:52;22.67;;;6.82;;
61741;SDS011;47650;49.848;9.620;2022-11-24T03:31:19;16.35;;;6.00;;
61741;SDS011;47650;49.848;9.620;2022-11-24T03:33:45;20.33;;;6.55;;
61741;SDS011;47650;49.848;9.620;2022-11-24T03:36:11;25.05;;;7.90;;
61741;SDS011;47650;49.848;9.620;2022-11-24T03:38:37;22.52;;;6.47;;
61741;SDS011;47650;49.848;9.620;2022-11-24T03:41:03;20.35;;;6.43;;
61741;SDS011;47650;49.848;9.620;2022-11-24T03:43:29;20.52;;;6.53;;
61741;SDS011;47650;49.848;9.620;2022-11-24T03:45:58;23.67;;;6.97;;
61741;SDS011;47650;49.848;9.620;2022-11-24T03:48:23;26.23;;;7.93;;
61741;SDS011;47650;49.848;9.620;2022-11-24T03:50:56;31.58;;;9.05;;
61741;SDS011;47650;49.848;9.620;2022-11-24T03:53:23;30.13;;;7.90;;
61741;SDS011;47650;49.848;9.620;2022-11-24T03:55:49;23.83;;;8.43;;
61741;SDS011;47650;49.848;9.620;2022-11-24T03:58:15;19.60;;;7.18;;
61741;SDS011;47650;49.848;9.620;2022-11-24T04:00:41;24.88;;;6.85;;
61741;SDS011;47650;49.848;9.620;2022-11-24T04:03:06;23.83;;;7.85;;
61741;SDS011;47650;49.848;9.620;2022-11-24T04:05:31;22.40;;;6.82;;
61741;SDS011;47650;49.848;9.620;2022-11-24T04:08:01;25.17;;;8.70;;
61741;SDS011;47650;49.848;9.620;2022-11-24T04:10:30;25.88;;;8.32;;
61741;SDS011;47650;49.848;9.620;2022-11-24T04:12:56;29.75;;;9.82;;
61741;SDS011;47650;49.848;9.620;2022-11-24T04:15:23;24.23;;;9.23;;
61741;SDS011;47650;49.848;9.620;2022-11-24T04:17:53;30.77;;;10.82;;
61741;SDS011;47650;49.848;9.620;2022-11-24T04:20:19;31.48;;;12.98;;
61741;SDS011;47650;49.848;9.620;2022-11-24T04:22:46;28.02;;;9.68;;
61741;SDS011;47650;49.848;9.620;2022-11-24T04:25:11;30.67;;;12.70;;
61741;SDS011;47650;49.848;9.620;2022-11-24T04:27:37;28.52;;;10.75;;
61741;SDS011;47650;49.848;9.620;2022-11-24T04:30:03;20.70;;;9.85;;
61741;SDS011;47650;49.848;9.620;2022-11-24T04:32:30;31.00;;;11.60;;
61741;SDS011;47650;49.848;9.620;2022-11-24T04:34:57;29.58;;;10.23;;
61741;SDS011;47650;49.848;9.620;2022-11-24T04:37:22;28.00;;;11.25;;
61741;SDS011;47650;49.848;9.620;2022-11-24T04:39:47;25.70;;;11.18;;
61741;SDS011;47650;49.848;9.620;2022-11-24T04:42:13;28.75;;;11.80;;
61741;SDS011;47650;49.848;9.620;2022-11-24T04:44:39;36.35;;;13.45;;
61741;SDS011;47650;49.848;9.620;2022-11-24T04:47:05;32.22;;;13.23;;
61741;SDS011;47650;49.848;9.620;2022-11-24T04:49:31;31.08;;;11.98;;
61741;SDS011;47650;49.848;9.620;2022-11-24T04:52:00;36.05;;;11.75;;
61741;SDS011;47650;49.848;9.620;2022-11-24T04:54:28;35.60;;;17.48;;
61741;SDS011;47650;49.848;9.620;2022-11-24T04:56:54;30.80;;;13.65;;
61741;SDS011;47650;49.848;9.620;2022-11-24T04:59:19;26.15;;;11.30;;
61741;SDS011;47650;49.848;9.620;2022-11-24T05:01:45;27.52;;;11.18;;
61741;SDS011;47650;49.848;9.620;2022-11-24T05:04:11;33.47;;;11.07;;
61741;SDS011;47650;49.848;9.620;2022-11-24T05:06:39;28.60;;;9.85;;
61741;SDS011;47650;49.848;9.620;2022-11-24T05:09:07;24.60;;;10.45;;
61741;SDS011;47650;49.848;9.620;2022-11-24T05:11:33;41.83;;;13.02;;
61741;SDS011;47650;49.848;9.620;2022-11-24T05:13:59;30.38;;;10.63;;
61741;SDS011;47650;49.848;9.620;2022-11-24T05:16:25;29.60;;;10.20;;
61741;SDS011;47650;49.848;9.620;2022-11-24T05:18:52;33.50;;;9.40;;
61741;SDS011;47650;49.848;9.620;2022-11-24T05:21:20;81.60;;;43.05;;
61741;SDS011;47650;49.848;9.620;2022-11-24T05:23:45;31.67;;;15.02;;
61741;SDS011;47650;49.848;9.620;2022-11-24T05:26:10;23.90;;;8.73;;
61741;SDS011;47650;49.848;9.620;2022-11-24T05:28:36;22.83;;;6.85;;
61741;SDS011;47650;49.848;9.620;2022-11-24T05:31:03;26.75;;;10.05;;
61741;SDS011;47650;49.848;9.620;2022-11-24T05:33:29;27.70;;;8.35;;
61741;SDS011;47650;49.848;9.620;2022-11-24T05:36:00;18.33;;;4.47;;
61741;SDS011;47650;49.848;9.620;2022-11-24T05:38:26;28.95;;;5.25;;
61741;SDS011;47650;49.848;9.620;2022-11-24T05:41:04;24.98;;;5.50;;
61741;SDS011;47650;49.848;9.620;2022-11-24T05:43:30;21.73;;;5.03;;
61741;SDS011;47650;49.848;9.620;2022-11-24T05:45:58;21.90;;;4.68;;
61741;SDS011;47650;49.848;9.620;2022-11-24T05:48:26;19.52;;;5.35;;
61741;SDS011;47650;49.848;9.620;2022-11-24T05:50:57;22.10;;;4.25;;
61741;SDS011;47650;49.848;9.620;2022-11-24T05:53:24;20.42;;;4.45;;
61741;SDS011;47650;49.848;9.620;2022-11-24T05:55:50;17.63;;;4.15;;
61741;SDS011;47650;49.848;9.620;2022-11-24T05:58:16;23.33;;;4.93;;
61741;SDS011;47650;49.848;9.620;2022-11-24T06:00:41;23.98;;;4.65;;
61741;SDS011;47650;49.848;9.620;2022-11-24T06:03:07;23.58;;;5.18;;
61741;SDS011;47650;49.848;9.620;2022-11-24T06:05:32;28.65;;;6.32;;
61741;SDS011;47650;49.848;9.620;2022-11-24T06:07:58;19.67;;;5.50;;
61741;SDS011;47650;49.848;9.620;2022-11-24T06:10:24;21.70;;;5.55;;
61741;SDS011;47650;49.848;9.620;2022-11-24T06:12:50;27.63;;;13.80;;
61741;SDS011;47650;49.848;9.620;2022-11-24T06:15:17;26.75;;;10.70;;
61741;SDS011;47650;49.848;9.620;2022-11-24T06:17:54;30.35;;;8.27;;
61741;SDS011;47650;49.848;9.620;2022-11-24T06:20:21;23.65;;;8.43;;
61741;SDS011;47650;49.848;9.620;2022-11-24T06:22:47;21.05;;;5.30;;
61741;SDS011;47650;49.848;9.620;2022-11-24T06:25:13;26.38;;;6.80;;
61741;SDS011;47650;49.848;9.620;2022-11-24T06:27:40;23.00;;;5.28;;
61741;SDS011;47650;49.848;9.620;2022-11-24T06:30:05;17.60;;;4.07;;
61741;SDS011;47650;49.848;9.620;2022-11-24T06:32:31;15.63;;;4.13;;
61741;SDS011;47650;49.848;9.620;2022-11-24T06:34:56;22.13;;;5.03;;
61741;SDS011;47650;49.848;9.620;2022-11-24T06:37:21;24.13;;;4.97;;
61741;SDS011;47650;49.848;9.620;2022-11-24T06:39:46;20.77;;;4.18;;
61741;SDS011;47650;49.848;9.620;2022-11-24T06:42:13;15.70;;;4.00;;
61741;SDS011;47650;49.848;9.620;2022-11-24T06:44:42;18.45;;;5.75;;
61741;SDS011;47650;49.848;9.620;2022-11-24T06:47:10;26.20;;;7.55;;
61741;SDS011;47650;49.848;9.620;2022-11-24T06:49:37;19.00;;;5.50;;
61741;SDS011;47650;49.848;9.620;2022-11-24T06:52:02;20.27;;;5.38;;
61741;SDS011;47650;49.848;9.620;2022-11-24T06:54:34;18.63;;;5.18;;
61741;SDS011;47650;49.848;9.620;2022-11-24T06:56:59;17.90;;;5.50;;
61741;SDS011;47650;49.848;9.620;2022-11-24T06:59:25;20.65;;;6.75;;
61741;SDS011;47650;49.848;9.620;2022-11-24T07:01:50;25.50;;;5.85;;
61741;SDS011;47650;49.848;9.620;2022-11-24T07:04:16;19.52;;;5.35;;
61741;SDS011;47650;49.848;9.620;2022-11-24T07:06:43;26.75;;;5.80;;
61741;SDS011;47650;49.848;9.620;2022-11-24T07:09:10;23.90;;;5.70;;
61741;SDS011;47650;49.848;9.620;2022-11-24T07:11:38;21.08;;;5.60;;
61741;SDS011;47650;49.848;9.620;2022-11-24T07:14:04;34.80;;;8.82;;
61741;SDS011;47650;49.848;9.620;2022-11-24T07:16:30;30.38;;;11.20;;
61741;SDS011;47650;49.848;9.620;2022-11-24T07:18:56;22.83;;;7.45;;
61741;SDS011;47650;49.848;9.620;2022-11-24T07:21:22;20.45;;;6.07;;
61741;SDS011;47650;49.848;9.620;2022-11-24T07:23:49;20.20;;;6.60;;
61741;SDS011;47650;49.848;9.620;2022-11-24T07:26:15;22.50;;;5.78;;
61741;SDS011;47650;49.848;9.620;2022-11-24T07:28:41;19.35;;;5.72;;
61741;SDS011;47650;49.848;9.620;2022-11-24T07:31:08;16.80;;;4.70;;
61741;SDS011;47650;49.848;9.620;2022-11-24T07:33:35;19.20;;;4.68;;
61741;SDS011;47650;49.848;9.620;2022-11-24T07:36:01;21.08;;;4.60;;
61741;SDS011;47650;49.848;9.620;2022-11-24T07:38:28;22.95;;;5.32;;
61741;SDS011;47650;49.848;9.620;2022-11-24T07:41:02;24.80;;;6.43;;
61741;SDS011;47650;49.848;9.620;2022-11-24T07:43:32;23.27;;;5.30;;
61741;SDS011;47650;49.848;9.620;2022-11-24T07:45:58;30.20;;;5.63;;
61741;SDS011;47650;49.848;9.620;2022-11-24T07:48:26;29.50;;;5.50;;
61741;SDS011;47650;49.848;9.620;2022-11-24T07:50:52;28.48;;;7.07;;
61741;SDS011;47650;49.848;9.620;2022-11-24T07:53:18;32.78;;;6.32;;
61741;SDS011;47650;49.848;9.620;2022-11-24T07:55:43;33.85;;;6.38;;
61741;SDS011;47650;49.848;9.620;2022-11-24T07:58:23;36.03;;;7.15;;
61741;SDS011;47650;49.848;9.620;2022-11-24T08:00:48;30.33;;;6.05;;
61741;SDS011;47650;49.848;9.620;2022-11-24T08:03:14;42.72;;;7.63;;
61741;SDS011;47650;49.848;9.620;2022-11-24T08:05:55;39.35;;;7.38;;
61741;SDS011;47650;49.848;9.620;2022-11-24T08:08:22;36.65;;;6.90;;
61741;SDS011;47650;49.848;9.620;2022-11-24T08:10:48;28.98;;;6.35;;
61741;SDS011;47650;49.848;9.620;2022-11-24T08:13:16;42.35;;;8.23;;
61741;SDS011;47650;49.848;9.620;2022-11-24T08:15:41;33.00;;;7.53;;
61741;SDS011;47650;49.848;9.620;2022-11-24T08:18:07;37.22;;;8.73;;
61741;SDS011;47650;49.848;9.620;2022-11-24T08:20:35;32.13;;;7.47;;
61741;SDS011;47650;49.848;9.620;2022-11-24T08:23:00;34.65;;;7.38;;
61741;SDS011;47650;49.848;9.620;2022-11-24T08:25:26;32.38;;;7.68;;
61741;SDS011;47650;49.848;9.620;2022-11-24T08:27:59;35.70;;;8.25;;
61741;SDS011;47650;49.848;9.620;2022-11-24T08:30:26;28.63;;;7.50;;
61741;SDS011;47650;49.848;9.620;2022-11-24T08:32:52;38.65;;;9.45;;
61741;SDS011;47650;49.848;9.620;2022-11-24T08:35:18;32.20;;;5.70;;
61741;SDS011;47650;49.848;9.620;2022-11-24T08:37:43;27.80;;;6.22;;
61741;SDS011;47650;49.848;9.620;2022-11-24T08:40:08;30.85;;;7.25;;
61741;SDS011;47650;49.848;9.620;2022-11-24T08:42:36;38.97;;;7.47;;
61741;SDS011;47650;49.848;9.620;2022-11-24T08:45:02;36.28;;;8.15;;
61741;SDS011;47650;49.848;9.620;2022-11-24T08:47:28;42.10;;;9.38;;
61741;SDS011;47650;49.848;9.620;2022-11-24T08:49:53;29.65;;;7.80;;
61741;SDS011;47650;49.848;9.620;2022-11-24T08:52:20;28.77;;;7.07;;
61741;SDS011;47650;49.848;9.620;2022-11-24T08:54:47;28.23;;;7.05;;
61741;SDS011;47650;49.848;9.620;2022-11-24T08:57:13;34.40;;;6.07;;
61741;SDS011;47650;49.848;9.620;2022-11-24T08:59:40;32.97;;;7.95;;
61741;SDS011;47650;49.848;9.620;2022-11-24T09:02:05;30.83;;;6.43;;
61741;SDS011;47650;49.848;9.620;2022-11-24T09:04:31;30.42;;;6.75;;
61741;SDS011;47650;49.848;9.620;2022-11-24T09:06:58;29.42;;;7.35;;
61741;SDS011;47650;49.848;9.620;2022-11-24T09:09:23;22.48;;;5.25;;
61741;SDS011;47650;49.848;9.620;2022-11-24T09:14:16;27.23;;;6.53;;
61741;SDS011;47650;49.848;9.620;2022-11-24T09:16:41;36.13;;;7.65;;
61741;SDS011;47650;49.848;9.620;2022-11-24T09:19:08;25.27;;;7.40;;
61741;SDS011;47650;49.848;9.620;2022-11-24T09:24:03;21.25;;;5.40;;
61741;SDS011;47650;49.848;9.620;2022-11-24T09:26:32;25.23;;;6.30;;
61741;SDS011;47650;49.848;9.620;2022-11-24T09:29:02;24.75;;;6.85;;
61741;SDS011;47650;49.848;9.620;2022-11-24T09:31:32;24.90;;;5.70;;
61741;SDS011;47650;49.848;9.620;2022-11-24T09:33:59;22.70;;;5.50;;
61741;SDS011;47650;49.848;9.620;2022-11-24T09:36:25;19.75;;;5.35;;
61741;SDS011;47650;49.848;9.620;2022-11-24T09:38:51;18.75;;;5.20;;
61741;SDS011;47650;49.848;9.620;2022-11-24T09:43:47;16.60;;;5.78;;
61741;SDS011;47650;49.848;9.620;2022-11-24T09:46:16;18.08;;;6.47;;
61741;SDS011;47650;49.848;9.620;2022-11-24T09:48:48;20.10;;;5.47;;
61741;SDS011;47650;49.848;9.620;2022-11-24T09:51:19;17.10;;;5.38;;
61741;SDS011;47650;49.848;9.620;2022-11-24T09:53:53;17.27;;;4.95;;
61741;SDS011;47650;49.848;9.620;2022-11-24T09:56:26;19.58;;;5.10;;
61741;SDS011;47650;49.848;9.620;2022-11-24T09:58:58;20.15;;;5.68;;
61741;SDS011;47650;49.848;9.620;2022-11-24T10:01:33;26.50;;;6.13;;
61741;SDS011;47650;49.848;9.620;2022-11-24T10:04:02;17.98;;;4.93;;
61741;SDS011;47650;49.848;9.620;2022-11-24T10:06:37;14.30;;;3.80;;
61741;SDS011;47650;49.848;9.620;2022-11-24T10:12:03;14.23;;;4.18;;
61741;SDS011;47650;49.848;9.620;2022-11-24T10:20:02;14.27;;;3.90;;
61741;SDS011;47650;49.848;9.620;2022-11-24T10:25:36;16.52;;;3.92;;
61741;SDS011;47650;49.848;9.620;2022-11-24T10:28:25;12.63;;;3.40;;
61741;SDS011;47650;49.848;9.620;2022-11-24T10:30:59;9.87;;;3.00;;
61741;SDS011;47650;49.848;9.620;2022-11-24T10:33:40;11.73;;;3.38;;
61741;SDS011;47650;49.848;9.620;2022-11-24T10:36:07;11.38;;;3.25;;
61741;SDS011;47650;49.848;9.620;2022-11-24T10:41:37;8.85;;;3.20;;
61741;SDS011;47650;49.848;9.620;2022-11-24T10:44:11;8.32;;;2.80;;
61741;SDS011;47650;49.848;9.620;2022-11-24T10:46:37;7.47;;;2.58;;
61741;SDS011;47650;49.848;9.620;2022-11-24T10:49:03;7.35;;;2.47;;
61741;SDS011;47650;49.848;9.620;2022-11-24T10:51:31;10.52;;;3.10;;
61741;SDS011;47650;49.848;9.620;2022-11-24T10:54:04;8.98;;;2.97;;
61741;SDS011;47650;49.848;9.620;2022-11-24T10:56:37;13.30;;;3.25;;
61741;SDS011;47650;49.848;9.620;2022-11-24T10:59:28;10.43;;;2.60;;
61741;SDS011;47650;49.848;9.620;2022-11-24T11:02:01;10.98;;;3.17;;
61741;SDS011;47650;49.848;9.620;2022-11-24T11:04:50;9.05;;;2.92;;
61741;SDS011;47650;49.848;9.620;2022-11-24T11:07:19;8.27;;;2.45;;
61741;SDS011;47650;49.848;9.620;2022-11-24T11:09:48;9.95;;;2.72;;
61741;SDS011;47650;49.848;9.620;2022-11-24T11:12:23;9.38;;;2.85;;
61741;SDS011;47650;49.848;9.620;2022-11-24T11:14:55;9.68;;;2.97;;
61741;SDS011;47650;49.848;9.620;2022-11-24T11:17:38;11.88;;;2.95;;
61741;SDS011;47650;49.848;9.620;2022-11-24T11:20:18;10.38;;;2.50;;
61741;SDS011;47650;49.848;9.620;2022-11-24T11:22:51;9.00;;;2.38;;
61741;SDS011;47650;49.848;9.620;2022-11-24T11:25:20;11.48;;;2.90;;
61741;SDS011;47650;49.848;9.620;2022-11-24T11:27:50;10.10;;;2.78;;
61741;SDS011;47650;49.848;9.620;2022-11-24T11:30:16;7.75;;;2.17;;
61741;SDS011;47650;49.848;9.620;2022-11-24T11:32:58;11.15;;;2.75;;
61741;SDS011;47650;49.848;9.620;2022-11-24T11:35:28;9.90;;;2.75;;
61741;SDS011;47650;49.848;9.620;2022-11-24T11:38:00;8.77;;;2.50;;
61741;SDS011;47650;49.848;9.620;2022-11-24T11:40:32;10.18;;;2.80;;
61741;SDS011;47650;49.848;9.620;2022-11-24T11:45:44;10.00;;;3.22;;
61741;SDS011;47650;49.848;9.620;2022-11-24T11:51:20;10.98;;;2.38;;
61741;SDS011;47650;49.848;9.620;2022-11-24T11:53:42;11.23;;;2.63;;
61741;SDS011;47650;49.848;9.620;2022-11-24T12:01:53;7.22;;;2.35;;
61741;SDS011;47650;49.848;9.620;2022-11-24T12:04:27;10.55;;;2.70;;
61741;SDS011;47650;49.848;9.620;2022-11-24T12:07:04;7.22;;;2.30;;
61741;SDS011;47650;49.848;9.620;2022-11-24T12:12:58;8.80;;;2.88;;
61741;SDS011;47650;49.848;9.620;2022-11-24T12:15:45;7.90;;;2.28;;
61741;SDS011;47650;49.848;9.620;2022-11-24T12:18:31;12.25;;;2.47;;
61741;SDS011;47650;49.848;9.620;2022-11-24T12:27:00;10.07;;;2.45;;
61741;SDS011;47650;49.848;9.620;2022-11-24T12:29:41;7.80;;;2.67;;
61741;SDS011;47650;49.848;9.620;2022-11-24T12:43:40;11.43;;;2.80;;
61741;SDS011;47650;49.848;9.620;2022-11-24T12:49:44;10.05;;;2.50;;
61741;SDS011;47650;49.848;9.620;2022-11-24T12:52:43;10.32;;;2.67;;
61741;SDS011;47650;49.848;9.620;2022-11-24T12:55:16;14.13;;;3.92;;
61741;SDS011;47650;49.848;9.620;2022-11-24T13:06:56;8.95;;;2.50;;
61741;SDS011;47650;49.848;9.620;2022-11-24T13:09:23;8.65;;;3.25;;
61741;SDS011;47650;49.848;9.620;2022-11-24T13:11:52;11.02;;;2.70;;
61741;SDS011;47650;49.848;9.620;2022-11-24T13:14:30;11.85;;;2.42;;
61741;SDS011;47650;49.848;9.620;2022-11-24T13:16:58;6.63;;;2.63;;
61741;SDS011;47650;49.848;9.620;2022-11-24T13:19:44;14.52;;;3.05;;
61741;SDS011;47650;49.848;9.620;2022-11-24T13:22:14;11.70;;;3.22;;
61741;SDS011;47650;49.848;9.620;2022-11-24T13:27:48;9.18;;;2.83;;
61741;SDS011;47650;49.848;9.620;2022-11-24T13:33:43;10.60;;;3.05;;
61741;SDS011;47650;49.848;9.620;2022-11-24T13:38:40;6.95;;;2.50;;
61741;SDS011;47650;49.848;9.620;2022-11-24T13:49:56;8.57;;;2.65;;
61741;SDS011;47650;49.848;9.620;2022-11-24T13:52:36;12.90;;;3.13;;
61741;SDS011;47650;49.848;9.620;2022-11-24T13:57:50;8.85;;;2.45;;
61741;SDS011;47650;49.848;9.620;2022-11-24T14:02:45;9.07;;;3.20;;
61741;SDS011;47650;49.848;9.620;2022-11-24T14:05:12;10.73;;;2.90;;
61741;SDS011;47650;49.848;9.620;2022-11-24T14:07:39;9.70;;;1.95;;
61741;SDS011;47650;49.848;9.620;2022-11-24T14:10:14;8.48;;;2.75;;
61741;SDS011;47650;49.848;9.620;2022-11-24T14:13:35;12.05;;;2.92;;
61741;SDS011;47650;49.848;9.620;2022-11-24T14:24:00;10.50;;;2.58;;
61741;SDS011;47650;49.848;9.620;2022-11-24T14:26:44;10.35;;;3.03;;
61741;SDS011;47650;49.848;9.620;2022-11-24T14:29:12;9.55;;;3.03;;
61741;SDS011;47650;49.848;9.620;2022-11-24T14:32:18;9.98;;;2.58;;
61741;SDS011;47650;49.848;9.620;2022-11-24T14:34:40;6.13;;;2.22;;
61741;SDS011;47650;49.848;9.620;2022-11-24T14:37:07;14.45;;;3.30;;
61741;SDS011;47650;49.848;9.620;2022-11-24T14:39:38;10.18;;;3.25;;
61741;SDS011;47650;49.848;9.620;2022-11-24T14:42:13;10.70;;;3.13;;
61741;SDS011;47650;49.848;9.620;2022-11-24T14:49:46;12.55;;;3.67;;
61741;SDS011;47650;49.848;9.620;2022-11-24T14:52:14;11.48;;;3.08;;
61741;SDS011;47650;49.848;9.620;2022-11-24T14:54:52;11.45;;;3.72;;
61741;SDS011;47650;49.848;9.620;2022-11-24T14:57:34;12.13;;;3.67;;
61741;SDS011;47650;49.848;9.620;2022-11-24T15:02:51;12.55;;;3.47;;
61741;SDS011;47650;49.848;9.620;2022-11-24T15:05:23;13.27;;;3.85;;
61741;SDS011;47650;49.848;9.620;2022-11-24T15:07:50;12.88;;;3.30;;
61741;SDS011;47650;49.848;9.620;2022-11-24T15:10:31;12.75;;;4.15;;
61741;SDS011;47650;49.848;9.620;2022-11-24T15:13:00;10.38;;;2.90;;
61741;SDS011;47650;49.848;9.620;2022-11-24T15:15:30;12.20;;;3.30;;
61741;SDS011;47650;49.848;9.620;2022-11-24T15:18:00;9.68;;;3.13;;
61741;SDS011;47650;49.848;9.620;2022-11-24T15:20:31;8.38;;;2.63;;
61741;SDS011;47650;49.848;9.620;2022-11-24T15:25:46;14.05;;;3.05;;
61741;SDS011;47650;49.848;9.620;2022-11-24T15:28:12;13.20;;;3.75;;
61741;SDS011;47650;49.848;9.620;2022-11-24T15:30:39;12.75;;;3.20;;
61741;SDS011;47650;49.848;9.620;2022-11-24T15:33:12;12.63;;;4.10;;
61741;SDS011;47650;49.848;9.620;2022-11-24T15:35:39;14.60;;;4.05;;
61741;SDS011;47650;49.848;9.620;2022-11-24T15:38:04;14.07;;;3.72;;
61741;SDS011;47650;49.848;9.620;2022-11-24T15:40:31;13.20;;;4.10;;
61741;SDS011;47650;49.848;9.620;2022-11-24T15:42:56;14.73;;;3.50;;
61741;SDS011;47650;49.848;9.620;2022-11-24T15:45:23;17.25;;;6.72;;
61741;SDS011;47650;49.848;9.620;2022-11-24T15:47:51;13.02;;;6.57;;
61741;SDS011;47650;49.848;9.620;2022-11-24T15:50:17;13.15;;;5.47;;
61741;SDS011;47650;49.848;9.620;2022-11-24T15:52:44;11.43;;;4.65;;
61741;SDS011;47650;49.848;9.620;2022-11-24T15:55:18;10.20;;;3.92;;
61741;SDS011;47650;49.848;9.620;2022-11-24T15:57:45;13.13;;;4.50;;
61741;SDS011;47650;49.848;9.620;2022-11-24T16:00:13;13.68;;;4.80;;
61741;SDS011;47650;49.848;9.620;2022-11-24T16:02:43;13.10;;;4.38;;
61741;SDS011;47650;49.848;9.620;2022-11-24T16:05:08;16.08;;;4.55;;
61741;SDS011;47650;49.848;9.620;2022-11-24T16:07:35;17.45;;;5.90;;
61741;SDS011;47650;49.848;9.620;2022-11-24T16:10:03;20.15;;;5.68;;
61741;SDS011;47650;49.848;9.620;2022-11-24T16:12:30;18.00;;;5.60;;
61741;SDS011;47650;49.848;9.620;2022-11-24T16:14:57;13.13;;;5.05;;
61741;SDS011;47650;49.848;9.620;2022-11-24T16:17:23;18.25;;;7.97;;
61741;SDS011;47650;49.848;9.620;2022-11-24T16:19:48;18.70;;;7.97;;
61741;SDS011;47650;49.848;9.620;2022-11-24T16:22:15;22.63;;;9.07;;
61741;SDS011;47650;49.848;9.620;2022-11-24T16:24:43;26.05;;;12.18;;
61741;SDS011;47650;49.848;9.620;2022-11-24T16:27:13;19.27;;;8.82;;
61741;SDS011;47650;49.848;9.620;2022-11-24T16:29:38;21.30;;;10.60;;
61741;SDS011;47650;49.848;9.620;2022-11-24T16:32:04;29.65;;;15.63;;
61741;SDS011;47650;49.848;9.620;2022-11-24T16:34:29;46.47;;;22.48;;